Theresa, Wisconsin
Current Conditions -  °F | °C
As of 6:15 PM on Monday 22 Dec 2014 (Local Time) from KUNU Reporting Station
Light Rain Light Rain  
Wind Chill: 24°   Ceiling: 700
Heat Index: 35°   Visibility: 4mi
Dew Point: 34°   Wind: 17mph
Humidity: 96%   Direction: 90°E
Pressure: 29.68"   Gusts: 23mph
Location:  43.52°N, 88.45°W
Report Text: KUNU 230015Z AUTO 09015G20KT 4SM -RA OVC007 02/01 A2968 RMK AO2 P0001 T00150009
Loading
Personal Weather Stations






























Interactive Weather Map New forecast layout! Learn more

10-Day Weather Forecast

Advertisements
Track Severe Weather on mobile